Time;durP1;ratioP1;P1;durP2;ratioP2;P2;SDS_P1;SDS_P2;PMS_P1;PMS_P2;Temp;Humidity;BMP_temperature;BMP_pressure;BME280_temperature;BME280_humidity;BME280_pressure;Samples;Min_cycle;Max_cycle;Signal;HPM_P1;HPM_P2
2023/08/12 00:02:12;;;;;;;13.18;10.70;;;22.60;99.90;;;;;;6213148;23;20013;-88
2023/08/12 00:04:37;;;;;;;12.73;11.43;;;22.60;99.90;;;;;;6234411;23;20080;-88
2023/08/12 00:07:03;;;;;;;16.40;12.45;;;22.60;99.90;;;;;;6223980;23;19996;-88
2023/08/12 00:09:28;;;;;;;11.65;10.45;;;22.60;99.90;;;;;;6213970;23;20369;-87
2023/08/12 00:11:54;;;;;;;15.32;11.35;;;22.60;99.90;;;;;;6214253;23;20071;-89
2023/08/12 00:14:19;;;;;;;13.35;10.48;;;22.60;99.90;;;;;;6214352;23;20007;-89
2023/08/12 00:16:45;;;;;;;15.65;11.30;;;22.60;99.90;;;;;;6213856;23;19993;-88
2023/08/12 00:19:10;;;;;;;11.70;10.43;;;22.60;99.90;;;;;;6213056;23;20000;-87
2023/08/12 00:21:36;;;;;;;11.02;10.00;;;22.60;99.90;;;;;;6212049;23;20001;-88
2023/08/12 00:24:02;;;;;;;10.77;9.40;;;22.60;99.90;;;;;;6212667;23;20054;-88
2023/08/12 00:26:28;;;;;;;11.57;9.75;;;22.60;99.90;;;;;;6213742;23;20529;-88
2023/08/12 00:28:53;;;;;;;12.73;10.23;;;22.60;99.90;;;;;;6219058;23;20024;-88
2023/08/12 00:31:19;;;;;;;12.93;11.32;;;22.50;99.90;;;;;;6223113;23;19996;-88
2023/08/12 00:33:44;;;;;;;12.18;10.32;;;22.60;99.90;;;;;;6215656;23;20078;-86
2023/08/12 00:36:10;;;;;;;12.13;10.85;;;22.60;99.90;;;;;;6228640;23;20044;-87
2023/08/12 00:38:36;;;;;;;12.68;10.57;;;22.60;99.90;;;;;;6232737;23;20004;-88
2023/08/12 00:41:03;;;;;;;14.52;10.77;;;22.60;99.90;;;;;;6215222;23;20082;-88
2023/08/12 00:43:28;;;;;;;13.77;11.27;;;22.50;99.90;;;;;;6214222;23;20492;-89
2023/08/12 00:45:54;;;;;;;15.35;10.80;;;22.50;99.90;;;;;;6188100;23;20005;-88
2023/08/12 00:48:19;;;;;;;12.68;10.18;;;22.50;99.90;;;;;;6214137;23;20073;-88
2023/08/12 00:50:46;;;;;;;11.35;9.88;;;22.50;99.90;;;;;;6214478;23;20363;-87
2023/08/12 00:53:12;;;;;;;12.48;10.70;;;22.50;99.90;;;;;;6213606;23;20016;-89
2023/08/12 00:55:38;;;;;;;14.32;11.23;;;22.50;99.90;;;;;;6213775;23;20019;-89
2023/08/12 00:58:04;;;;;;;10.77;9.68;;;22.50;99.90;;;;;;6213811;23;20008;-88
2023/08/12 01:00:31;;;;;;;12.73;11.27;;;22.50;99.90;;;;;;6213034;23;20431;-87
2023/08/12 01:02:57;;;;;;;12.30;10.20;;;22.50;99.90;;;;;;6213525;23;20004;-88
2023/08/12 01:05:23;;;;;;;17.65;10.90;;;22.50;99.90;;;;;;6213302;23;20028;-89
2023/08/12 01:07:49;;;;;;;18.70;12.48;;;22.50;99.90;;;;;;6213949;23;19996;-88
2023/08/12 01:10:16;;;;;;;10.65;9.63;;;22.40;99.90;;;;;;6212671;23;20009;-88
2023/08/12 01:12:59;;;;;;;12.55;10.02;;;22.40;99.90;;;;;;6213670;23;20080;-88
2023/08/12 01:15:26;;;;;;;11.68;8.38;;;22.40;99.90;;;;;;6212709;23;20015;-89
2023/08/12 01:17:54;;;;;;;11.85;10.55;;;22.40;99.90;;;;;;6213539;23;20076;-88
2023/08/12 01:20:24;;;;;;;12.02;10.70;;;22.40;99.90;;;;;;6212366;23;20012;-88
2023/08/12 01:22:57;;;;;;;12.32;10.35;;;22.40;99.90;;;;;;6186698;23;20380;-89
2023/08/12 01:25:27;;;;;;;11.23;9.30;;;22.40;99.90;;;;;;6212279;23;20004;-88
2023/08/12 01:27:52;;;;;;;11.55;9.68;;;22.40;99.90;;;;;;6213136;23;20046;-89
2023/08/12 01:30:20;;;;;;;11.35;9.57;;;22.40;99.90;;;;;;6212490;23;20012;-87
2023/08/12 01:33:00;;;;;;;15.85;10.13;;;22.30;99.90;;;;;;6213004;23;20366;-88
2023/08/12 01:35:29;;;;;;;14.45;9.63;;;22.30;99.90;;;;;;6212340;23;20068;-87
2023/08/12 01:37:58;;;;;;;13.05;11.35;;;22.30;99.90;;;;;;6212709;23;20427;-87
2023/08/12 01:40:25;;;;;;;10.77;9.20;;;22.30;99.90;;;;;;6210973;23;20047;-88
2023/08/12 01:42:52;;;;;;;11.73;8.70;;;22.20;99.90;;;;;;6212605;23;20001;-88
2023/08/12 01:45:19;;;;;;;12.15;10.93;;;22.30;99.90;;;;;;6212333;23;20007;-88
2023/08/12 01:47:44;;;;;;;12.25;10.50;;;22.30;99.90;;;;;;6212646;23;20016;-87
2023/08/12 01:50:10;;;;;;;12.77;11.45;;;22.30;99.90;;;;;;6212201;23;20001;-88
2023/08/12 01:52:36;;;;;;;15.68;12.93;;;22.30;99.90;;;;;;6212000;23;20001;-88
2023/08/12 01:55:02;;;;;;;13.10;10.82;;;22.20;99.90;;;;;;6211499;23;20054;-87
2023/08/12 01:57:27;;;;;;;18.27;13.75;;;22.20;99.90;;;;;;6185394;23;20055;-87
2023/08/12 01:59:53;;;;;;;14.75;13.02;;;22.20;99.90;;;;;;6212521;23;20425;-89
2023/08/12 02:02:22;;;;;;;14.88;13.30;;;22.20;99.90;;;;;;6212315;23;20004;-88
2023/08/12 02:04:48;;;;;;;18.83;13.52;;;22.20;99.90;;;;;;6186382;23;20001;-89
2023/08/12 02:07:13;;;;;;;16.55;14.55;;;22.20;99.90;;;;;;6212176;23;19997;-89
2023/08/12 02:09:39;;;;;;;18.65;13.82;;;22.20;99.90;;;;;;6185494;23;20028;-87
2023/08/12 02:12:05;;;;;;;19.38;16.70;;;22.20;99.90;;;;;;6212014;23;19997;-88
2023/08/12 02:14:31;;;;;;;17.42;13.90;;;22.20;99.90;;;;;;6212137;23;20000;-88
2023/08/12 02:16:56;;;;;;;15.38;13.48;;;22.20;99.90;;;;;;6212402;23;20007;-88
2023/08/12 02:19:22;;;;;;;18.02;15.80;;;22.20;99.90;;;;;;6185798;23;20009;-87
2023/08/12 02:21:47;;;;;;;21.13;18.00;;;22.10;99.90;;;;;;6212354;23;20040;-87
2023/08/12 02:24:13;;;;;;;17.42;15.77;;;22.20;99.90;;;;;;6211395;23;20000;-88
2023/08/12 02:26:39;;;;;;;17.05;15.38;;;22.10;99.90;;;;;;6213442;23;20407;-87
2023/08/12 02:29:04;;;;;;;19.15;16.50;;;22.10;99.90;;;;;;6214211;23;20005;-87
2023/08/12 02:31:30;;;;;;;18.60;16.67;;;22.10;99.90;;;;;;6213921;23;20484;-88
2023/08/12 02:33:55;;;;;;;18.55;16.10;;;22.10;99.90;;;;;;6214566;23;20004;-88
2023/08/12 02:36:21;;;;;;;23.42;17.52;;;22.10;99.90;;;;;;6213747;23;20438;-87
2023/08/12 02:38:47;;;;;;;18.60;16.35;;;22.10;99.90;;;;;;6213672;23;20013;-88
2023/08/12 02:41:12;;;;;;;19.70;17.02;;;22.10;99.90;;;;;;6214520;23;20011;-89
2023/08/12 02:43:38;;;;;;;18.92;17.02;;;22.10;99.90;;;;;;6214090;23;20101;-88
2023/08/12 02:46:04;;;;;;;18.42;16.60;;;22.10;99.90;;;;;;6217132;23;20049;-86
2023/08/12 02:48:29;;;;;;;18.88;16.92;;;22.20;99.90;;;;;;6220642;23;20027;-87
2023/08/12 02:50:55;;;;;;;20.08;16.25;;;22.20;99.90;;;;;;6215280;23;20000;-88
2023/08/12 02:53:20;;;;;;;18.25;16.25;;;22.20;99.90;;;;;;6213623;23;20016;-89
2023/08/12 02:55:47;;;;;;;18.15;16.35;;;22.20;99.90;;;;;;6214114;23;20052;-86
2023/08/12 02:58:12;;;;;;;20.83;16.27;;;22.20;99.90;;;;;;6212742;23;20008;-86
2023/08/12 03:00:43;;;;;;;17.80;16.20;;;22.20;99.90;;;;;;6213231;23;20015;-87
2023/08/12 03:03:09;;;;;;;17.55;15.70;;;22.20;99.90;;;;;;6212671;23;20008;-86
2023/08/12 03:05:35;;;;;;;20.60;18.45;;;22.10;99.90;;;;;;6213833;23;20004;-87
2023/08/12 03:08:03;;;;;;;23.80;17.88;;;22.10;99.90;;;;;;6215210;23;20004;-85
2023/08/12 03:10:29;;;;;;;20.52;18.45;;;22.20;99.90;;;;;;6216218;23;20023;-85
2023/08/12 03:12:55;;;;;;;24.25;20.75;;;22.10;99.90;;;;;;6217293;23;20316;-87
2023/08/12 03:15:20;;;;;;;20.90;18.85;;;22.10;99.90;;;;;;6188383;23;20434;-85
2023/08/12 03:17:46;;;;;;;20.67;18.52;;;22.10;99.90;;;;;;6190297;23;20031;-85
2023/08/12 03:20:12;;;;;;;22.30;19.70;;;22.10;99.90;;;;;;6187982;23;20012;-86
2023/08/12 03:22:38;;;;;;;22.75;20.15;;;22.10;99.90;;;;;;6186527;23;20012;-87
2023/08/12 03:25:04;;;;;;;20.33;18.33;;;22.10;99.90;;;;;;6214125;23;20004;-87
2023/08/12 03:27:30;;;;;;;22.42;20.13;;;22.10;99.90;;;;;;6213462;23;20004;-87
2023/08/12 03:29:56;;;;;;;20.50;18.33;;;22.10;99.90;;;;;;6213882;23;20423;-88
2023/08/12 03:32:21;;;;;;;21.05;18.65;;;22.10;99.90;;;;;;6213440;23;20035;-86
2023/08/12 03:34:47;;;;;;;23.25;20.95;;;22.10;99.90;;;;;;6187221;23;20435;-87
2023/08/12 03:37:13;;;;;;;21.75;19.23;;;22.10;99.90;;;;;;6212970;23;20043;-88
2023/08/12 03:39:38;;;;;;;18.75;16.52;;;22.10;99.90;;;;;;6186917;23;20009;-87
2023/08/12 03:42:04;;;;;;;26.10;19.70;;;22.00;99.90;;;;;;6213139;23;20075;-88
2023/08/12 03:44:30;;;;;;;20.95;18.83;;;22.00;99.90;;;;;;6213346;23;20001;-87
2023/08/12 03:46:55;;;;;;;25.95;20.92;;;22.00;99.90;;;;;;6213530;23;20051;-88
2023/08/12 03:49:21;;;;;;;21.38;17.58;;;22.00;99.90;;;;;;6212280;23;20008;-87
2023/08/12 03:51:46;;;;;;;21.95;19.45;;;22.00;99.90;;;;;;6213258;23;20426;-87
2023/08/12 03:54:12;;;;;;;19.58;17.58;;;22.00;99.90;;;;;;6212600;23;20426;-87
2023/08/12 03:56:38;;;;;;;20.40;17.92;;;22.00;99.90;;;;;;6213144;23;20040;-87
2023/08/12 03:59:03;;;;;;;17.77;16.02;;;22.00;99.90;;;;;;6213125;23;20000;-87
2023/08/12 04:01:29;;;;;;;19.92;17.25;;;22.00;99.90;;;;;;6213204;23;20023;-87
2023/08/12 04:03:54;;;;;;;20.88;18.83;;;22.00;99.90;;;;;;6212836;23;20089;-87
2023/08/12 04:06:20;;;;;;;18.45;16.08;;;22.00;99.90;;;;;;6212545;23;20054;-87
2023/08/12 04:08:45;;;;;;;19.73;17.70;;;22.00;99.90;;;;;;6211830;23;20399;-86
2023/08/12 04:11:11;;;;;;;18.45;16.08;;;22.00;99.90;;;;;;6210644;23;20004;-88
2023/08/12 04:13:36;;;;;;;18.23;16.52;;;22.00;99.90;;;;;;6210982;23;20008;-87
2023/08/12 04:16:02;;;;;;;25.67;20.15;;;22.00;99.90;;;;;;6211350;23;20005;-88
2023/08/12 04:18:28;;;;;;;23.40;19.50;;;22.00;99.90;;;;;;6183965;23;20016;-87
2023/08/12 04:20:53;;;;;;;23.30;19.45;;;22.00;99.90;;;;;;6211803;23;20001;-87
2023/08/12 04:23:19;;;;;;;20.15;17.67;;;21.90;99.90;;;;;;6210908;23;20414;-87
2023/08/12 04:25:48;;;;;;;23.80;18.30;;;22.00;99.90;;;;;;6212911;23;20000;-88
2023/08/12 04:28:15;;;;;;;22.75;20.48;;;22.00;99.90;;;;;;6212648;23;20007;-87
2023/08/12 04:30:45;;;;;;;20.92;18.00;;;21.90;99.90;;;;;;6213272;23;20054;-88
2023/08/12 04:33:12;;;;;;;19.48;16.95;;;22.00;99.90;;;;;;6186734;23;20015;-88
2023/08/12 04:35:39;;;;;;;20.08;17.95;;;21.90;99.90;;;;;;6213372;23;20004;-87
2023/08/12 04:38:04;;;;;;;21.00;18.65;;;21.90;99.90;;;;;;6213191;23;20008;-86
2023/08/12 04:40:31;;;;;;;24.80;20.92;;;21.90;99.90;;;;;;6213376;23;20014;-86
2023/08/12 04:42:58;;;;;;;23.25;20.73;;;21.90;99.90;;;;;;6212801;23;20087;-87
2023/08/12 04:45:23;;;;;;;21.30;19.15;;;21.90;99.90;;;;;;6212067;23;20000;-86
2023/08/12 04:47:49;;;;;;;22.40;19.00;;;21.90;99.90;;;;;;6212019;23;19993;-87
2023/08/12 04:50:15;;;;;;;24.65;22.02;;;21.90;99.90;;;;;;6212050;23;20067;-88
2023/08/12 04:52:40;;;;;;;20.95;18.88;;;22.00;99.90;;;;;;6212767;23;20418;-85
2023/08/12 04:55:06;;;;;;;23.50;21.00;;;22.00;99.90;;;;;;6212452;23;20012;-88
2023/08/12 04:57:32;;;;;;;22.40;18.80;;;22.00;99.90;;;;;;6212333;23;20011;-87
2023/08/12 04:59:57;;;;;;;21.55;19.20;;;22.10;99.90;;;;;;6212854;23;20307;-88
2023/08/12 05:02:23;;;;;;;29.80;22.38;;;22.10;99.90;;;;;;6184783;23;20008;-88
2023/08/12 05:04:51;;;;;;;23.83;20.88;;;22.20;99.90;;;;;;6212620;23;19997;-87
2023/08/12 05:07:17;;;;;;;20.08;18.15;;;22.20;99.90;;;;;;6212142;23;20308;-86
2023/08/12 05:09:46;;;;;;;20.70;18.52;;;22.20;99.90;;;;;;6212563;23;20060;-87
2023/08/12 05:12:11;;;;;;;17.52;15.57;;;22.30;99.90;;;;;;6212659;23;20338;-87
2023/08/12 05:14:39;;;;;;;20.08;17.80;;;22.30;99.90;;;;;;6212607;23;20003;-86
2023/08/12 05:17:05;;;;;;;16.80;15.27;;;22.40;99.90;;;;;;6212696;23;20013;-89
2023/08/12 05:19:31;;;;;;;17.02;14.77;;;22.40;99.90;;;;;;6213358;23;19997;-89
2023/08/12 05:21:57;;;;;;;16.23;14.60;;;22.40;99.90;;;;;;6213581;23;20005;-88
2023/08/12 05:24:22;;;;;;;18.73;13.95;;;22.30;99.90;;;;;;6209478;23;20342;-87
2023/08/12 05:26:48;;;;;;;17.15;12.55;;;22.30;99.90;;;;;;6219229;23;20024;-88
2023/08/12 05:29:13;;;;;;;17.30;13.70;;;22.20;99.90;;;;;;6217814;23;20000;-87
2023/08/12 05:31:39;;;;;;;17.77;14.13;;;22.10;99.90;;;;;;6211584;23;20004;-87
2023/08/12 05:34:04;;;;;;;18.90;14.77;;;22.10;99.90;;;;;;6210188;23;20024;-88
2023/08/12 05:36:30;;;;;;;15.25;13.70;;;22.10;99.90;;;;;;6213411;23;20005;-88
2023/08/12 05:38:56;;;;;;;15.98;12.52;;;22.00;99.90;;;;;;6211768;23;20411;-85
2023/08/12 05:41:22;;;;;;;15.18;13.55;;;22.00;99.90;;;;;;6211684;23;20028;-87
2023/08/12 05:43:48;;;;;;;19.00;12.80;;;21.90;99.90;;;;;;6212489;23;20015;-87
2023/08/12 05:46:14;;;;;;;18.02;14.38;;;21.90;99.90;;;;;;6211225;23;19997;-84
2023/08/12 05:48:39;;;;;;;16.80;14.48;;;21.90;99.90;;;;;;6212472;23;20001;-85
2023/08/12 05:51:05;;;;;;;16.10;14.13;;;21.90;99.90;;;;;;6186076;23;20442;-84
2023/08/12 05:53:32;;;;;;;17.08;13.63;;;21.90;99.90;;;;;;6215461;23;20143;-85
2023/08/12 05:55:57;;;;;;;16.20;14.07;;;21.80;99.90;;;;;;6186626;23;20337;-84
2023/08/12 05:58:23;;;;;;;17.42;14.02;;;21.80;99.90;;;;;;6212379;23;20039;-83
2023/08/12 06:00:48;;;;;;;16.75;13.38;;;21.80;99.90;;;;;;6211646;23;20039;-83
2023/08/12 06:03:14;;;;;;;14.43;12.82;;;21.80;99.90;;;;;;6212839;23;20423;-83
2023/08/12 06:05:41;;;;;;;13.73;11.60;;;21.70;99.90;;;;;;6213864;23;20024;-83
2023/08/12 06:08:06;;;;;;;15.65;11.70;;;21.70;99.90;;;;;;6213900;23;20334;-83
2023/08/12 06:10:33;;;;;;;15.82;10.95;;;21.70;99.90;;;;;;6213402;23;20011;-83
2023/08/12 06:12:59;;;;;;;11.45;10.35;;;21.70;99.90;;;;;;6213992;23;20004;-83
2023/08/12 06:15:24;;;;;;;16.45;12.60;;;21.70;99.90;;;;;;6212789;23;20522;-83
2023/08/12 06:17:50;;;;;;;18.88;11.48;;;21.60;99.90;;;;;;6214012;23;20008;-83
2023/08/12 06:20:16;;;;;;;15.23;10.93;;;21.60;99.90;;;;;;6213596;23;20004;-83
2023/08/12 06:22:41;;;;;;;16.80;11.05;;;21.60;99.90;;;;;;6213677;23;20422;-82
2023/08/12 06:25:07;;;;;;;12.60;11.13;;;21.60;99.90;;;;;;6213604;23;20004;-84
2023/08/12 06:27:33;;;;;;;12.18;11.05;;;21.60;99.90;;;;;;6186919;23;20345;-84
2023/08/12 06:29:59;;;;;;;12.20;10.13;;;21.60;99.90;;;;;;6213398;23;19997;-83
2023/08/12 06:32:24;;;;;;;10.85;8.77;;;21.60;99.90;;;;;;6213222;23;20011;-83
2023/08/12 06:34:50;;;;;;;10.60;8.45;;;21.60;99.90;;;;;;6213775;23;20005;-84
2023/08/12 06:37:15;;;;;;;6.75;6.05;;;21.60;99.90;;;;;;6213416;23;20442;-84
2023/08/12 06:39:41;;;;;;;12.32;7.30;;;21.50;99.90;;;;;;6213716;23;20330;-84
2023/08/12 06:42:06;;;;;;;12.38;7.68;;;21.50;99.90;;;;;;6213411;23;20492;-84
2023/08/12 06:44:32;;;;;;;7.05;6.22;;;21.50;99.90;;;;;;6212773;23;20004;-83
2023/08/12 06:46:57;;;;;;;7.70;6.63;;;21.50;99.90;;;;;;6213690;23;20005;-82
2023/08/12 06:49:23;;;;;;;10.02;7.45;;;21.50;99.90;;;;;;6213068;23;20028;-82
2023/08/12 06:51:48;;;;;;;9.60;7.78;;;21.50;99.90;;;;;;6213544;23;20001;-83
2023/08/12 06:54:14;;;;;;;11.35;7.55;;;21.50;99.90;;;;;;6212669;23;20024;-82
2023/08/12 06:56:39;;;;;;;9.45;7.05;;;21.50;99.90;;;;;;6213463;23;20009;-84
2023/08/12 06:59:05;;;;;;;9.32;6.97;;;21.50;99.90;;;;;;6212865;23;20063;-84
2023/08/12 07:01:31;;;;;;;10.75;8.05;;;21.50;99.90;;;;;;6212711;23;20135;-84
2023/08/12 07:03:56;;;;;;;8.07;7.28;;;21.50;99.90;;;;;;6186846;23;20004;-84
2023/08/12 07:06:22;;;;;;;8.35;7.55;;;21.50;99.90;;;;;;6213039;23;20005;-85
2023/08/12 07:08:48;;;;;;;9.50;7.30;;;21.60;99.90;;;;;;6213380;23;20607;-85
2023/08/12 07:11:13;;;;;;;13.00;8.50;;;21.60;99.90;;;;;;6213262;23;20088;-85
2023/08/12 07:13:39;;;;;;;8.68;7.68;;;21.60;99.90;;;;;;6212559;23;20055;-85
2023/08/12 07:16:04;;;;;;;8.52;7.63;;;21.70;99.90;;;;;;6213245;23;20071;-85
2023/08/12 07:18:30;;;;;;;7.95;7.13;;;21.70;99.90;;;;;;6213104;23;20008;-86
2023/08/12 07:20:58;;;;;;;10.02;9.02;;;21.70;99.90;;;;;;6211948;23;20075;-84
2023/08/12 07:23:23;;;;;;;9.00;6.93;;;21.70;99.90;;;;;;6212433;23;20007;-83
2023/08/12 07:25:49;;;;;;;8.85;7.93;;;21.80;99.90;;;;;;6186510;23;20001;-82
2023/08/12 07:28:15;;;;;;;11.75;8.90;;;21.80;99.90;;;;;;6212256;23;20001;-82
2023/08/12 07:30:41;;;;;;;12.13;8.45;;;21.80;99.90;;;;;;6213197;23;20067;-82
2023/08/12 07:33:07;;;;;;;10.55;8.85;;;21.80;99.90;;;;;;6212994;23;20001;-81
2023/08/12 07:35:32;;;;;;;8.40;6.95;;;21.80;99.90;;;;;;6186347;23;20005;-77
2023/08/12 07:37:58;;;;;;;8.70;7.80;;;21.70;99.90;;;;;;6213325;23;20399;-78
2023/08/12 07:40:24;;;;;;;7.95;7.15;;;21.70;99.90;;;;;;6212802;23;20430;-79
2023/08/12 07:42:49;;;;;;;11.23;7.65;;;21.70;99.90;;;;;;6212466;23;20001;-79
2023/08/12 07:45:15;;;;;;;12.23;8.70;;;21.80;99.90;;;;;;6212295;23;20000;-77
2023/08/12 07:47:40;;;;;;;8.48;6.43;;;21.70;99.90;;;;;;6212805;23;20011;-77
2023/08/12 07:50:06;;;;;;;7.80;7.00;;;21.70;99.90;;;;;;6212811;23;19997;-77
2023/08/12 07:52:32;;;;;;;10.50;7.85;;;21.70;99.90;;;;;;6212399;23;20489;-77
2023/08/12 07:54:57;;;;;;;7.20;6.50;;;21.70;99.90;;;;;;6212806;23;20497;-78
2023/08/12 07:57:24;;;;;;;7.05;6.35;;;21.70;99.90;;;;;;6185451;23;20449;-77
2023/08/12 07:59:50;;;;;;;8.52;7.40;;;21.70;99.90;;;;;;6212945;23;20445;-77
2023/08/12 08:02:16;;;;;;;6.80;5.63;;;21.80;99.90;;;;;;6211980;23;20004;-77
2023/08/12 08:04:42;;;;;;;6.72;6.05;;;21.70;99.90;;;;;;6212716;23;20614;-77
2023/08/12 08:07:07;;;;;;;5.97;5.45;;;21.70;99.90;;;;;;6212479;23;20438;-78
2023/08/12 08:09:33;;;;;;;7.97;5.15;;;21.70;99.90;;;;;;6212578;23;20739;-77
2023/08/12 08:12:00;;;;;;;6.43;4.85;;;21.70;99.90;;;;;;6212157;23;20028;-77
2023/08/12 08:14:26;;;;;;;7.00;5.03;;;21.80;99.90;;;;;;6212263;23;20011;-77
2023/08/12 08:16:52;;;;;;;6.60;4.00;;;21.80;99.90;;;;;;6212363;23;20075;-78
2023/08/12 08:19:18;;;;;;;6.13;3.58;;;21.80;99.90;;;;;;6211951;23;20001;-78
2023/08/12 08:21:43;;;;;;;4.10;3.28;;;21.80;99.90;;;;;;6212551;23;20008;-78
2023/08/12 08:24:11;;;;;;;4.18;3.17;;;21.90;99.90;;;;;;6211752;23;20305;-77
2023/08/12 08:26:36;;;;;;;3.03;2.75;;;21.90;99.90;;;;;;6211162;23;20007;-77
2023/08/12 08:29:02;;;;;;;3.78;3.38;;;22.00;99.90;;;;;;6212055;23;20059;-77
2023/08/12 08:31:28;;;;;;;3.33;3.03;;;22.10;99.90;;;;;;6185396;23;20000;-78
2023/08/12 08:33:54;;;;;;;2.97;2.50;;;22.20;99.90;;;;;;6212284;23;20011;-78
2023/08/12 08:36:19;;;;;;;2.75;2.55;;;22.20;99.90;;;;;;6211917;23;20032;-78
2023/08/12 08:38:45;;;;;;;3.45;3.15;;;22.30;99.90;;;;;;6212379;23;20004;-77
2023/08/12 08:41:11;;;;;;;3.65;3.35;;;22.30;99.90;;;;;;6211681;23;20004;-77
2023/08/12 08:43:38;;;;;;;3.65;2.75;;;22.30;99.90;;;;;;6212214;23;20008;-78
2023/08/12 08:46:04;;;;;;;3.33;3.03;;;22.40;99.90;;;;;;6212405;23;20001;-77
2023/08/12 08:48:30;;;;;;;2.92;2.72;;;22.50;99.90;;;;;;6185386;23;20080;-77
2023/08/12 08:50:56;;;;;;;3.40;3.10;;;22.50;99.90;;;;;;6212136;23;20032;-77
2023/08/12 08:53:22;;;;;;;3.45;3.05;;;22.50;99.90;;;;;;6211060;23;20012;-76
2023/08/12 08:55:48;;;;;;;3.70;3.25;;;22.50;99.90;;;;;;6211412;23;20004;-77
2023/08/12 08:58:13;;;;;;;3.50;3.20;;;22.50;99.90;;;;;;6211972;23;20422;-77
2023/08/12 09:00:39;;;;;;;4.18;3.20;;;22.50;99.90;;;;;;6212379;23;20047;-77
2023/08/12 09:03:06;;;;;;;3.13;2.78;;;22.40;99.90;;;;;;6211892;23;20004;-77
2023/08/12 09:05:33;;;;;;;3.45;3.15;;;22.40;99.90;;;;;;6211672;23;20005;-77
2023/08/12 09:08:00;;;;;;;2.78;2.55;;;22.40;99.90;;;;;;6211941;23;20008;-77
2023/08/12 09:10:26;;;;;;;3.60;2.50;;;22.40;99.90;;;;;;6210951;23;20027;-78
2023/08/12 09:12:54;;;;;;;3.15;2.85;;;22.40;99.90;;;;;;6212244;23;20001;-77
2023/08/12 09:15:20;;;;;;;3.40;3.10;;;22.50;99.90;;;;;;6211694;23;20008;-79
2023/08/12 09:17:46;;;;;;;2.70;2.50;;;22.50;99.90;;;;;;6212161;23;20039;-78
2023/08/12 09:20:11;;;;;;;4.30;3.20;;;22.60;99.90;;;;;;6212131;23;19997;-79
2023/08/12 09:22:38;;;;;;;2.30;2.10;;;22.60;99.90;;;;;;6211404;23;20004;-78
2023/08/12 09:25:04;;;;;;;1.80;1.70;;;22.60;99.90;;;;;;6211243;23;20459;-79
2023/08/12 09:27:31;;;;;;;3.10;1.65;;;22.60;99.90;;;;;;6211743;23;20427;-78
2023/08/12 09:30:00;;;;;;;1.65;1.23;;;22.60;99.90;;;;;;6212236;23;20024;-78
2023/08/12 09:32:26;;;;;;;2.35;1.35;;;22.70;99.90;;;;;;6211637;23;20001;-78
2023/08/12 09:34:55;;;;;;;0.80;0.80;;;22.70;99.90;;;;;;6212134;23;20333;-78
2023/08/12 09:37:23;;;;;;;1.00;0.82;;;22.80;99.90;;;;;;6211082;23;20745;-78
2023/08/12 09:39:51;;;;;;;0.75;0.75;;;22.90;99.90;;;;;;6211931;23;20000;-78
2023/08/12 09:42:17;;;;;;;1.10;0.73;;;23.00;99.90;;;;;;6211368;23;20001;-78
2023/08/12 09:44:43;;;;;;;0.50;0.50;;;23.20;99.90;;;;;;6212117;23;20001;-78
2023/08/12 09:47:09;;;;;;;0.60;0.60;;;23.30;99.90;;;;;;6212004;23;20067;-78
2023/08/12 09:49:36;;;;;;;0.60;0.60;;;23.40;99.90;;;;;;6211753;23;20430;-78
2023/08/12 09:52:03;;;;;;;0.57;0.50;;;23.40;99.90;;;;;;6211741;23;20419;-78
2023/08/12 09:54:31;;;;;;;0.57;0.57;;;23.50;99.90;;;;;;6211317;23;20036;-78
2023/08/12 09:57:00;;;;;;;1.38;0.52;;;23.60;99.90;;;;;;6212116;23;20001;-77
2023/08/12 09:59:34;;;;;;;1.83;0.60;;;23.60;99.90;;;;;;6211248;23;20054;-77
2023/08/12 10:02:03;;;;;;;0.45;0.40;;;23.60;99.90;;;;;;6211996;23;20011;-77
2023/08/12 10:04:42;;;;;;;0.75;0.63;;;23.70;99.90;;;;;;6211112;23;20039;-78
2023/08/12 10:07:14;;;;;;;0.50;0.47;;;23.70;99.90;;;;;;6210801;23;20008;-78
2023/08/12 10:09:40;;;;;;;0.50;0.40;;;23.70;99.90;;;;;;6184736;23;20023;-77
2023/08/12 10:12:07;;;;;;;0.35;0.30;;;23.70;99.90;;;;;;6210896;23;20423;-77
2023/08/12 10:14:33;;;;;;;0.47;0.40;;;23.80;99.90;;;;;;6210833;23;20497;-80
2023/08/12 10:17:00;;;;;;;0.70;0.55;;;23.90;99.90;;;;;;6211145;23;20069;-81
2023/08/12 10:19:26;;;;;;;1.98;0.70;;;24.00;99.90;;;;;;6184092;23;20449;-81
2023/08/12 10:21:58;;;;;;;0.98;0.75;;;24.10;99.90;;;;;;6184350;23;20036;-81
2023/08/12 10:24:26;;;;;;;2.17;0.80;;;24.20;99.90;;;;;;6210310;23;20009;-81
2023/08/12 10:26:53;;;;;;;0.82;0.60;;;24.30;99.90;;;;;;6184399;23;20001;-81
2023/08/12 10:29:19;;;;;;;2.63;0.95;;;24.20;99.90;;;;;;6210844;23;20005;-81
2023/08/12 10:31:46;;;;;;;2.83;0.93;;;24.00;99.90;;;;;;6184438;23;20015;-81
2023/08/12 10:34:22;;;;;;;2.55;1.30;;;23.90;99.90;;;;;;6211010;23;20079;-81
2023/08/12 10:36:53;;;;;;;4.03;1.20;;;23.90;99.90;;;;;;6211058;23;20012;-81
2023/08/12 10:39:24;;;;;;;3.55;1.80;;;24.00;99.90;;;;;;6210974;23;20012;-81
2023/08/12 10:41:52;;;;;;;3.38;1.70;;;24.00;99.90;;;;;;6211599;23;20011;-82
2023/08/12 10:44:20;;;;;;;2.13;1.65;;;23.90;99.90;;;;;;6210779;23;20005;-84
2023/08/12 10:46:53;;;;;;;3.40;1.42;;;23.90;99.90;;;;;;6184788;23;20308;-84
2023/08/12 10:49:23;;;;;;;4.22;1.52;;;23.80;99.90;;;;;;6185679;23;20024;-83
2023/08/12 10:51:53;;;;;;;3.38;1.65;;;23.70;99.90;;;;;;6212455;23;19996;-83
2023/08/12 10:54:31;;;;;;;2.28;1.45;;;23.50;99.90;;;;;;6212567;23;20023;-83
2023/08/12 10:57:02;;;;;;;2.83;1.70;;;23.30;99.90;;;;;;6212804;23;20071;-83
2023/08/12 10:59:47;;;;;;;2.45;1.20;;;23.20;99.90;;;;;;6212242;23;20008;-82
2023/08/12 11:02:16;;;;;;;2.58;1.80;;;23.20;99.90;;;;;;6212740;23;20005;-82
2023/08/12 11:04:42;;;;;;;3.05;1.30;;;23.20;99.90;;;;;;6212226;23;20027;-82
2023/08/12 11:07:18;;;;;;;2.08;1.27;;;23.30;99.90;;;;;;6212941;23;19997;-82
2023/08/12 11:09:45;;;;;;;2.83;1.17;;;23.40;99.90;;;;;;6213499;23;20330;-82
2023/08/12 11:12:11;;;;;;;3.58;1.67;;;23.50;99.90;;;;;;6212910;23;20008;-82
2023/08/12 11:14:53;;;;;;;3.03;1.02;;;23.60;99.90;;;;;;6212452;23;20059;-83
2023/08/12 11:17:19;;;;;;;1.95;1.20;;;23.70;99.90;;;;;;6212467;23;20005;-82
2023/08/12 11:19:44;;;;;;;3.97;1.20;;;23.70;99.90;;;;;;6212352;23;20022;-77
2023/08/12 11:22:12;;;;;;;3.30;1.50;;;23.70;99.90;;;;;;6212898;23;20000;-77
2023/08/12 11:24:43;;;;;;;4.30;2.13;;;23.70;99.90;;;;;;6212458;23;20039;-77
2023/08/12 11:27:11;;;;;;;2.97;0.98;;;23.60;99.90;;;;;;6212664;23;20091;-76
2023/08/12 11:29:38;;;;;;;3.25;1.02;;;23.50;99.90;;;;;;6212687;23;20411;-76
2023/08/12 11:32:05;;;;;;;3.58;1.27;;;23.50;99.90;;;;;;6212903;23;20124;-76
2023/08/12 11:34:32;;;;;;;5.75;1.60;;;23.40;99.90;;;;;;6211597;23;20010;-76
2023/08/12 11:36:58;;;;;;;3.67;1.02;;;23.40;99.90;;;;;;6212098;23;20028;-76
2023/08/12 11:39:24;;;;;;;4.65;1.80;;;23.40;99.90;;;;;;6184980;23;20035;-76
2023/08/12 11:41:53;;;;;;;4.00;1.30;;;23.50;99.90;;;;;;6212217;23;20012;-76
2023/08/12 11:44:22;;;;;;;4.90;1.42;;;23.50;99.90;;;;;;6211855;23;20012;-76
2023/08/12 11:46:49;;;;;;;2.67;0.90;;;23.50;99.90;;;;;;6212250;23;20012;-76
2023/08/12 11:49:14;;;;;;;3.03;1.45;;;23.60;99.90;;;;;;6211705;23;20012;-76
2023/08/12 11:51:41;;;;;;;5.82;1.80;;;23.70;99.90;;;;;;6212515;23;20001;-81
2023/08/12 11:54:07;;;;;;;3.60;1.15;;;23.60;99.60;;;;;;6211895;23;20008;-81
2023/08/12 11:56:33;;;;;;;2.35;1.30;;;23.70;99.70;;;;;;6185936;23;20051;-81
2023/08/12 11:58:59;;;;;;;2.55;1.30;;;23.70;99.60;;;;;;6212112;23;20054;-82
2023/08/12 12:01:25;;;;;;;8.30;1.27;;;23.80;99.70;;;;;;6183454;23;20326;-83
2023/08/12 12:03:51;;;;;;;2.85;1.10;;;24.00;99.80;;;;;;6209933;23;20082;-82
2023/08/12 12:06:17;;;;;;;5.78;1.33;;;24.10;99.50;;;;;;6210311;23;20008;-80
2023/08/12 12:08:44;;;;;;;4.60;1.40;;;24.20;99.10;;;;;;6210574;23;20071;-81
2023/08/12 12:11:10;;;;;;;3.33;1.48;;;24.30;98.50;;;;;;6211118;23;20039;-80
2023/08/12 12:13:36;;;;;;;5.53;1.30;;;24.30;98.40;;;;;;6183956;23;20004;-80
2023/08/12 12:16:01;;;;;;;5.18;1.08;;;24.30;98.10;;;;;;6211421;23;20008;-79
2023/08/12 12:18:27;;;;;;;5.10;1.70;;;24.10;98.20;;;;;;6183464;23;20020;-80
2023/08/12 12:20:57;;;;;;;7.95;2.13;;;24.10;98.00;;;;;;6211189;23;19996;-80
2023/08/12 12:23:30;;;;;;;7.10;2.05;;;24.10;97.90;;;;;;6210745;23;20053;-81
2023/08/12 12:26:03;;;;;;;5.25;1.55;;;24.00;98.00;;;;;;6211058;23;20000;-79
2023/08/12 12:28:29;;;;;;;4.85;1.80;;;24.00;98.00;;;;;;6211740;23;20067;-81
2023/08/12 12:30:55;;;;;;;10.02;2.00;;;24.10;98.20;;;;;;6210914;23;19999;-81
2023/08/12 12:33:20;;;;;;;3.60;1.45;;;24.10;97.80;;;;;;6210110;23;20036;-81